KMLB/MLB METAR and TAF weather

Enter ICAO airport designator
Station Type Date Time Source
KMLB METAR 2022/07/01 00:53 UTC NOAA

KMLB 010053Z 15010KT 10SM BKN080 28/23 A3009 RMK AO2 RAE2358 SLP189 P0000 T02830233


Station Type Date Time Source
KMLB Decoded METAR 2022/07/01 00:53 UTC NOAA

MELBOURNE INTERNATIONAL, FL, United States (KMLB) 28-06N 080-39W 10M
Jun 30, 2022 - 08:53 PM EDT / 2022.07.01 0053 UTC
Wind: from the SSE (150 degrees) at 12 MPH (10 KT):0
Visibility: 10 mile(s):0
Sky conditions: mostly cloudy
Precipitation last hour: A trace
Temperature: 82.9 F (28.3 C)
Dew Point: 73.9 F (23.3 C)
Relative Humidity: 74%
Pressure (altimeter): 30.09 in. Hg (1018 hPa)
ob: KMLB 010053Z 15010KT 10SM BKN080 28/23 A3009 RMK AO2 RAE2358 SLP189 P0000 T02830233
cycle: 1

Station Type Date Time Source
KMLB TAF 2022/06/30 18:39 UTC NOAA

TAF KMLB 301736Z 3018/0118 11010KT P6SM VCTS SCT025CB BKN040 BKN250
TEMPO 3018/3020 3SM TSRA BKN025CB
FM010000 14006KT P6SM VCSH FEW030 SCT060 BKN120
FM010400 16004KT P6SM SCT080 BKN140
FM011400 16006KT P6SM SCT035 SCT080 BKN200

Example: see airport list